Zhong Yuan 209 — V7QE5 — position and weather

sailwx.info

Track history (hours):
 
Tides and Currents Weather Stations Pressure Air Temp Water Temp Dewpoint Dewpoint Depression Visibility Wind Speed Wind Dir Waves Ship Positions

Zhong Yuan 209

Last reported at 2016-Oct-27 00:18 UTC. Time now 2016-Dec-09 04:01 UTC.
Position N 38°31' E 123°01'.
Warning: this ship's position is 43 days out of date.

Length 229 m.

Type: Cargo ship. MMSI: 538006963.

Date/timePositionNaut miles runAvg speedWind from/ knotsBaromVisibWave heightAir tempDewpointWater temp
2016-Oct-27 00:18N 38°31' E 123°01'35 1.3
2016-Oct-25 20:08N 38°40' E 122°17'12 2.5
2016-Oct-25 15:33N 38°45' E 122°04'9 4.6
2016-Oct-25 13:33N 38°44' E 121°52'0 0.0
2016-Oct-25 12:31N 38°44' E 121°52'0 0.1
2016-Oct-25 10:34N 38°44' E 121°51'18 6.1
2016-Oct-25 07:34N 39°00' E 121°40'1 0.3
2016-Oct-25 05:33N 39°01' E 121°40'0 0.0
2016-Oct-25 04:33N 39°01' E 121°40'0 0.0
2016-Oct-25 03:34N 39°01' E 121°40'0 0.0
2016-Oct-25 02:33N 39°01' E 121°40'0 0.0
2016-Oct-24 07:33N 39°01' E 121°40'0 0.0
2016-Oct-24 06:33N 39°01' E 121°40'0 0.0
2016-Oct-24 01:33N 39°01' E 121°40'  
2016-Oct-21 06:31N 39°01' E 121°40'  
Track history (hours):
 
Tides and Currents Weather Stations Pressure Air Temp Water Temp Dewpoint Dewpoint Depression Visibility Wind Speed Wind Dir Waves Ship Positions

Zhong Yuan 209

Last reported at 2016-Oct-27 00:18 UTC. Time now 2016-Dec-09 04:01 UTC.
Position N 38°31' E 123°01'.
Warning: this ship's position is 43 days out of date.

Length 229 m.

Type: Cargo ship. MMSI: 538006963.

Date/timePositionNaut miles runAvg speedWind from/ knotsBaromVisibWave heightAir tempDewpointWater temp
2016-Oct-27 00:18N 38°31' E 123°01'35 1.3
2016-Oct-25 20:08N 38°40' E 122°17'12 2.5
2016-Oct-25 15:33N 38°45' E 122°04'9 4.6
2016-Oct-25 13:33N 38°44' E 121°52'0 0.0
2016-Oct-25 12:31N 38°44' E 121°52'0 0.1
2016-Oct-25 10:34N 38°44' E 121°51'18 6.1
2016-Oct-25 07:34N 39°00' E 121°40'1 0.3
2016-Oct-25 05:33N 39°01' E 121°40'0 0.0
2016-Oct-25 04:33N 39°01' E 121°40'0 0.0
2016-Oct-25 03:34N 39°01' E 121°40'0 0.0
2016-Oct-25 02:33N 39°01' E 121°40'0 0.0
2016-Oct-24 07:33N 39°01' E 121°40'0 0.0
2016-Oct-24 06:33N 39°01' E 121°40'0 0.0
2016-Oct-24 01:33N 39°01' E 121°40'  
2016-Oct-21 06:31N 39°01' E 121°40'  

Dump ship's entire track history